sensor_id;sensor_type;location;lat;lon;timestamp;P1;durP1;ratioP1;P2;durP2;ratioP2
45322;SDS011;31382;50.200;8.674;2023-05-10T00:00:57;2.45;;;1.30;;
45322;SDS011;31382;50.200;8.674;2023-05-10T00:05:58;1.80;;;0.50;;
45322;SDS011;31382;50.200;8.674;2023-05-10T00:11:00;1.90;;;0.32;;
45322;SDS011;31382;50.200;8.674;2023-05-10T00:16:02;1.08;;;0.60;;
45322;SDS011;31382;50.200;8.674;2023-05-10T00:21:03;1.40;;;0.10;;
45322;SDS011;31382;50.200;8.674;2023-05-10T00:26:05;2.25;;;0.20;;
45322;SDS011;31382;50.200;8.674;2023-05-10T00:31:06;0.17;;;0.10;;
45322;SDS011;31382;50.200;8.674;2023-05-10T00:36:08;0.57;;;0.10;;
45322;SDS011;31382;50.200;8.674;2023-05-10T00:41:09;0.38;;;0.20;;
45322;SDS011;31382;50.200;8.674;2023-05-10T00:46:11;1.25;;;0.20;;
45322;SDS011;31382;50.200;8.674;2023-05-10T00:51:13;0.57;;;0.20;;
45322;SDS011;31382;50.200;8.674;2023-05-10T00:56:15;0.30;;;0.20;;
45322;SDS011;31382;50.200;8.674;2023-05-10T01:01:17;0.47;;;0.20;;
45322;SDS011;31382;50.200;8.674;2023-05-10T01:06:18;0.30;;;0.17;;
45322;SDS011;31382;50.200;8.674;2023-05-10T01:11:19;2.35;;;0.15;;
45322;SDS011;31382;50.200;8.674;2023-05-10T01:16:22;0.98;;;0.10;;
45322;SDS011;31382;50.200;8.674;2023-05-10T01:21:29;0.15;;;0.10;;
45322;SDS011;31382;50.200;8.674;2023-05-10T01:26:45;0.75;;;0.17;;
45322;SDS011;31382;50.200;8.674;2023-05-10T01:37:06;1.25;;;0.40;;
45322;SDS011;31382;50.200;8.674;2023-05-10T01:42:14;0.98;;;0.30;;
45322;SDS011;31382;50.200;8.674;2023-05-10T01:47:24;3.28;;;1.02;;
45322;SDS011;31382;50.200;8.674;2023-05-10T01:52:37;0.52;;;0.30;;
45322;SDS011;31382;50.200;8.674;2023-05-10T01:57:42;1.20;;;0.50;;
45322;SDS011;31382;50.200;8.674;2023-05-10T02:02:46;1.30;;;0.50;;
45322;SDS011;31382;50.200;8.674;2023-05-10T02:07:53;3.67;;;0.40;;
45322;SDS011;31382;50.200;8.674;2023-05-10T02:12:55;2.20;;;0.68;;
45322;SDS011;31382;50.200;8.674;2023-05-10T02:18:00;2.97;;;0.60;;
45322;SDS011;31382;50.200;8.674;2023-05-10T02:23:04;3.38;;;0.70;;
45322;SDS011;31382;50.200;8.674;2023-05-10T02:28:08;5.32;;;0.70;;
45322;SDS011;31382;50.200;8.674;2023-05-10T02:33:11;3.72;;;0.63;;
45322;SDS011;31382;50.200;8.674;2023-05-10T02:38:13;3.50;;;0.70;;
45322;SDS011;31382;50.200;8.674;2023-05-10T02:43:15;1.25;;;0.70;;
45322;SDS011;31382;50.200;8.674;2023-05-10T02:48:19;3.65;;;0.63;;
45322;SDS011;31382;50.200;8.674;2023-05-10T02:53:30;0.68;;;0.40;;
45322;SDS011;31382;50.200;8.674;2023-05-10T02:58:34;2.53;;;0.50;;
45322;SDS011;31382;50.200;8.674;2023-05-10T03:03:36;2.75;;;0.57;;
45322;SDS011;31382;50.200;8.674;2023-05-10T03:08:37;2.33;;;0.50;;
45322;SDS011;31382;50.200;8.674;2023-05-10T03:13:42;3.90;;;0.80;;
45322;SDS011;31382;50.200;8.674;2023-05-10T03:18:54;1.10;;;0.50;;
45322;SDS011;31382;50.200;8.674;2023-05-10T03:24:05;3.63;;;0.50;;
45322;SDS011;31382;50.200;8.674;2023-05-10T03:29:09;3.80;;;0.65;;
45322;SDS011;31382;50.200;8.674;2023-05-10T03:34:11;2.33;;;0.60;;
45322;SDS011;31382;50.200;8.674;2023-05-10T03:39:13;1.83;;;0.60;;
45322;SDS011;31382;50.200;8.674;2023-05-10T03:44:14;1.95;;;0.80;;
45322;SDS011;31382;50.200;8.674;2023-05-10T03:49:15;3.13;;;0.80;;
45322;SDS011;31382;50.200;8.674;2023-05-10T03:54:17;3.05;;;0.60;;
45322;SDS011;31382;50.200;8.674;2023-05-10T03:59:18;3.17;;;1.58;;
45322;SDS011;31382;50.200;8.674;2023-05-10T04:04:20;2.72;;;1.05;;
45322;SDS011;31382;50.200;8.674;2023-05-10T04:09:22;4.97;;;1.23;;
45322;SDS011;31382;50.200;8.674;2023-05-10T04:14:23;3.58;;;0.93;;
45322;SDS011;31382;50.200;8.674;2023-05-10T04:19:28;2.97;;;1.27;;
45322;SDS011;31382;50.200;8.674;2023-05-10T04:24:33;3.05;;;1.30;;
45322;SDS011;31382;50.200;8.674;2023-05-10T04:29:34;3.58;;;1.02;;
45322;SDS011;31382;50.200;8.674;2023-05-10T04:34:36;2.78;;;1.13;;
45322;SDS011;31382;50.200;8.674;2023-05-10T04:39:38;3.58;;;1.08;;
45322;SDS011;31382;50.200;8.674;2023-05-10T04:44:42;1.83;;;0.80;;
45322;SDS011;31382;50.200;8.674;2023-05-10T04:49:43;8.45;;;1.95;;
45322;SDS011;31382;50.200;8.674;2023-05-10T04:54:45;2.08;;;1.20;;
45322;SDS011;31382;50.200;8.674;2023-05-10T04:59:46;1.98;;;0.90;;
45322;SDS011;31382;50.200;8.674;2023-05-10T05:04:50;1.85;;;0.88;;
45322;SDS011;31382;50.200;8.674;2023-05-10T05:09:52;2.25;;;0.93;;
45322;SDS011;31382;50.200;8.674;2023-05-10T05:14:53;5.45;;;1.02;;
45322;SDS011;31382;50.200;8.674;2023-05-10T05:19:54;1.38;;;0.80;;
45322;SDS011;31382;50.200;8.674;2023-05-10T05:24:57;3.30;;;1.02;;
45322;SDS011;31382;50.200;8.674;2023-05-10T05:29:59;2.33;;;1.38;;
45322;SDS011;31382;50.200;8.674;2023-05-10T05:35:00;2.95;;;1.10;;
45322;SDS011;31382;50.200;8.674;2023-05-10T05:40:02;2.63;;;1.50;;
45322;SDS011;31382;50.200;8.674;2023-05-10T05:45:04;2.92;;;1.35;;
45322;SDS011;31382;50.200;8.674;2023-05-10T05:50:06;5.03;;;1.67;;
45322;SDS011;31382;50.200;8.674;2023-05-10T05:55:08;3.25;;;1.60;;
45322;SDS011;31382;50.200;8.674;2023-05-10T06:00:09;5.30;;;1.70;;
45322;SDS011;31382;50.200;8.674;2023-05-10T06:05:11;3.88;;;1.60;;
45322;SDS011;31382;50.200;8.674;2023-05-10T06:10:12;4.72;;;1.92;;
45322;SDS011;31382;50.200;8.674;2023-05-10T06:15:14;1.85;;;1.45;;
45322;SDS011;31382;50.200;8.674;2023-05-10T06:20:16;7.30;;;4.22;;
45322;SDS011;31382;50.200;8.674;2023-05-10T06:25:17;3.97;;;2.03;;
45322;SDS011;31382;50.200;8.674;2023-05-10T06:30:19;4.50;;;2.22;;
45322;SDS011;31382;50.200;8.674;2023-05-10T06:35:21;3.17;;;2.05;;
45322;SDS011;31382;50.200;8.674;2023-05-10T06:40:22;4.43;;;1.85;;
45322;SDS011;31382;50.200;8.674;2023-05-10T06:45:24;2.58;;;1.60;;
45322;SDS011;31382;50.200;8.674;2023-05-10T06:50:25;4.65;;;2.00;;
45322;SDS011;31382;50.200;8.674;2023-05-10T06:55:27;4.63;;;1.27;;
45322;SDS011;31382;50.200;8.674;2023-05-10T07:00:29;3.95;;;1.05;;
45322;SDS011;31382;50.200;8.674;2023-05-10T07:05:30;3.55;;;1.20;;
45322;SDS011;31382;50.200;8.674;2023-05-10T07:10:32;8.05;;;2.25;;
45322;SDS011;31382;50.200;8.674;2023-05-10T07:15:34;5.05;;;1.17;;
45322;SDS011;31382;50.200;8.674;2023-05-10T07:20:35;3.88;;;1.25;;
45322;SDS011;31382;50.200;8.674;2023-05-10T07:25:36;7.43;;;1.23;;
45322;SDS011;31382;50.200;8.674;2023-05-10T07:30:38;3.40;;;1.45;;
45322;SDS011;31382;50.200;8.674;2023-05-10T07:35:40;4.00;;;1.10;;
45322;SDS011;31382;50.200;8.674;2023-05-10T07:40:41;5.32;;;1.27;;
45322;SDS011;31382;50.200;8.674;2023-05-10T07:45:43;4.18;;;1.45;;
45322;SDS011;31382;50.200;8.674;2023-05-10T07:50:44;3.67;;;1.30;;
45322;SDS011;31382;50.200;8.674;2023-05-10T07:55:53;4.65;;;1.20;;
45322;SDS011;31382;50.200;8.674;2023-05-10T08:00:57;3.88;;;1.00;;
45322;SDS011;31382;50.200;8.674;2023-05-10T08:05:59;3.78;;;1.20;;
45322;SDS011;31382;50.200;8.674;2023-05-10T08:11:00;3.28;;;0.93;;
45322;SDS011;31382;50.200;8.674;2023-05-10T08:16:02;5.22;;;2.05;;
45322;SDS011;31382;50.200;8.674;2023-05-10T08:21:03;4.80;;;1.73;;
45322;SDS011;31382;50.200;8.674;2023-05-10T08:26:05;2.78;;;1.17;;
45322;SDS011;31382;50.200;8.674;2023-05-10T08:31:06;2.80;;;1.05;;
45322;SDS011;31382;50.200;8.674;2023-05-10T08:36:08;4.72;;;0.88;;
45322;SDS011;31382;50.200;8.674;2023-05-10T08:41:09;1.77;;;0.80;;
45322;SDS011;31382;50.200;8.674;2023-05-10T08:46:13;2.80;;;0.73;;
45322;SDS011;31382;50.200;8.674;2023-05-10T08:51:19;1.73;;;1.17;;
45322;SDS011;31382;50.200;8.674;2023-05-10T08:56:23;6.63;;;1.92;;
45322;SDS011;31382;50.200;8.674;2023-05-10T09:01:25;1.35;;;0.80;;
45322;SDS011;31382;50.200;8.674;2023-05-10T09:06:28;5.18;;;0.90;;
45322;SDS011;31382;50.200;8.674;2023-05-10T09:11:30;4.25;;;0.75;;
45322;SDS011;31382;50.200;8.674;2023-05-10T09:16:32;4.95;;;0.90;;
45322;SDS011;31382;50.200;8.674;2023-05-10T09:21:35;3.33;;;0.95;;
45322;SDS011;31382;50.200;8.674;2023-05-10T09:26:45;3.05;;;0.63;;
45322;SDS011;31382;50.200;8.674;2023-05-10T09:31:52;2.80;;;0.73;;
45322;SDS011;31382;50.200;8.674;2023-05-10T09:36:57;2.80;;;1.15;;
45322;SDS011;31382;50.200;8.674;2023-05-10T09:42:05;4.95;;;1.20;;
45322;SDS011;31382;50.200;8.674;2023-05-10T09:47:08;1.65;;;0.73;;
45322;SDS011;31382;50.200;8.674;2023-05-10T09:52:13;2.45;;;0.82;;
45322;SDS011;31382;50.200;8.674;2023-05-10T09:57:20;0.98;;;0.70;;
45322;SDS011;31382;50.200;8.674;2023-05-10T10:02:27;2.00;;;0.60;;
45322;SDS011;31382;50.200;8.674;2023-05-10T10:07:30;3.50;;;1.63;;
45322;SDS011;31382;50.200;8.674;2023-05-10T10:12:32;3.03;;;0.63;;
45322;SDS011;31382;50.200;8.674;2023-05-10T10:17:35;3.45;;;0.50;;
45322;SDS011;31382;50.200;8.674;2023-05-10T10:22:39;2.97;;;0.63;;
45322;SDS011;31382;50.200;8.674;2023-05-10T10:38:36;3.28;;;0.45;;
45322;SDS011;31382;50.200;8.674;2023-05-10T10:43:39;0.88;;;0.50;;
45322;SDS011;31382;50.200;8.674;2023-05-10T10:48:41;1.42;;;0.50;;
45322;SDS011;31382;50.200;8.674;2023-05-10T10:53:49;2.15;;;0.60;;
45322;SDS011;31382;50.200;8.674;2023-05-10T10:58:51;2.97;;;0.98;;
45322;SDS011;31382;50.200;8.674;2023-05-10T11:04:14;1.38;;;0.47;;
45322;SDS011;31382;50.200;8.674;2023-05-10T11:09:19;3.65;;;0.50;;
45322;SDS011;31382;50.200;8.674;2023-05-10T11:14:25;1.38;;;0.63;;
45322;SDS011;31382;50.200;8.674;2023-05-10T11:19:27;3.55;;;0.60;;
45322;SDS011;31382;50.200;8.674;2023-05-10T11:24:29;2.35;;;0.43;;
45322;SDS011;31382;50.200;8.674;2023-05-10T11:29:30;0.75;;;0.40;;
45322;SDS011;31382;50.200;8.674;2023-05-10T11:34:31;0.93;;;0.40;;
45322;SDS011;31382;50.200;8.674;2023-05-10T11:39:36;0.85;;;0.47;;
45322;SDS011;31382;50.200;8.674;2023-05-10T11:44:37;1.70;;;0.40;;
45322;SDS011;31382;50.200;8.674;2023-05-10T11:49:39;0.50;;;0.30;;
45322;SDS011;31382;50.200;8.674;2023-05-10T11:54:53;0.60;;;0.30;;
45322;SDS011;31382;50.200;8.674;2023-05-10T11:59:56;1.00;;;0.40;;
45322;SDS011;31382;50.200;8.674;2023-05-10T12:04:58;1.10;;;0.20;;
45322;SDS011;31382;50.200;8.674;2023-05-10T12:10:10;1.48;;;0.20;;
45322;SDS011;31382;50.200;8.674;2023-05-10T12:15:17;2.90;;;0.10;;
45322;SDS011;31382;50.200;8.674;2023-05-10T12:20:21;2.05;;;0.20;;
45322;SDS011;31382;50.200;8.674;2023-05-10T12:25:24;2.50;;;0.20;;
45322;SDS011;31382;50.200;8.674;2023-05-10T12:30:32;0.20;;;0.10;;
45322;SDS011;31382;50.200;8.674;2023-05-10T12:35:42;2.20;;;0.15;;
45322;SDS011;31382;50.200;8.674;2023-05-10T12:40:45;0.77;;;0.30;;
45322;SDS011;31382;50.200;8.674;2023-05-10T12:45:47;2.75;;;0.10;;
45322;SDS011;31382;50.200;8.674;2023-05-10T12:50:49;1.48;;;0.10;;
45322;SDS011;31382;50.200;8.674;2023-05-10T12:55:51;2.95;;;0.20;;
45322;SDS011;31382;50.200;8.674;2023-05-10T13:00:53;0.70;;;0.20;;
45322;SDS011;31382;50.200;8.674;2023-05-10T13:05:54;0.28;;;0.20;;
45322;SDS011;31382;50.200;8.674;2023-05-10T13:10:56;0.43;;;0.10;;
45322;SDS011;31382;50.200;8.674;2023-05-10T13:15:57;0.50;;;0.08;;
45322;SDS011;31382;50.200;8.674;2023-05-10T13:20:58;3.40;;;0.13;;
45322;SDS011;31382;50.200;8.674;2023-05-10T13:26:00;0.85;;;0.03;;
45322;SDS011;31382;50.200;8.674;2023-05-10T13:31:01;0.10;;;0.10;;
45322;SDS011;31382;50.200;8.674;2023-05-10T13:36:03;0.40;;;0.20;;
45322;SDS011;31382;50.200;8.674;2023-05-10T13:41:04;0.30;;;0.10;;
45322;SDS011;31382;50.200;8.674;2023-05-10T13:46:06;0.35;;;0.10;;
45322;SDS011;31382;50.200;8.674;2023-05-10T13:51:07;1.63;;;0.20;;
45322;SDS011;31382;50.200;8.674;2023-05-10T13:56:09;0.20;;;0.10;;
45322;SDS011;31382;50.200;8.674;2023-05-10T14:01:10;0.52;;;0.10;;
45322;SDS011;31382;50.200;8.674;2023-05-10T14:06:13;4.15;;;0.13;;
45322;SDS011;31382;50.200;8.674;2023-05-10T14:11:14;0.22;;;0.10;;
45322;SDS011;31382;50.200;8.674;2023-05-10T14:16:16;2.00;;;0.13;;
45322;SDS011;31382;50.200;8.674;2023-05-10T14:21:17;2.30;;;0.10;;
45322;SDS011;31382;50.200;8.674;2023-05-10T14:26:19;6.07;;;0.82;;
45322;SDS011;31382;50.200;8.674;2023-05-10T14:31:21;2.42;;;0.20;;
45322;SDS011;31382;50.200;8.674;2023-05-10T14:36:25;0.75;;;0.10;;
45322;SDS011;31382;50.200;8.674;2023-05-10T14:41:27;1.88;;;0.10;;
45322;SDS011;31382;50.200;8.674;2023-05-10T14:46:28;1.77;;;0.10;;
45322;SDS011;31382;50.200;8.674;2023-05-10T14:51:30;0.10;;;0.10;;
45322;SDS011;31382;50.200;8.674;2023-05-10T14:56:32;0.40;;;0.03;;
45322;SDS011;31382;50.200;8.674;2023-05-10T15:01:34;0.30;;;0.10;;
45322;SDS011;31382;50.200;8.674;2023-05-10T15:06:38;0.15;;;0.10;;
45322;SDS011;31382;50.200;8.674;2023-05-10T15:11:40;4.30;;;0.10;;
45322;SDS011;31382;50.200;8.674;2023-05-10T15:16:41;0.30;;;0.10;;
45322;SDS011;31382;50.200;8.674;2023-05-10T15:21:42;0.40;;;0.10;;
45322;SDS011;31382;50.200;8.674;2023-05-10T15:26:45;0.43;;;0.10;;
45322;SDS011;31382;50.200;8.674;2023-05-10T15:31:47;1.95;;;0.10;;
45322;SDS011;31382;50.200;8.674;2023-05-10T15:36:49;1.25;;;0.10;;
45322;SDS011;31382;50.200;8.674;2023-05-10T15:41:50;0.65;;;0.13;;
45322;SDS011;31382;50.200;8.674;2023-05-10T15:46:52;7.60;;;0.60;;
45322;SDS011;31382;50.200;8.674;2023-05-10T15:51:53;2.70;;;0.30;;
45322;SDS011;31382;50.200;8.674;2023-05-10T15:56:54;0.47;;;0.10;;
45322;SDS011;31382;50.200;8.674;2023-05-10T16:01:56;1.42;;;0.00;;
45322;SDS011;31382;50.200;8.674;2023-05-10T16:06:57;0.20;;;0.10;;
45322;SDS011;31382;50.200;8.674;2023-05-10T16:11:59;0.10;;;0.10;;
45322;SDS011;31382;50.200;8.674;2023-05-10T16:17:00;1.02;;;0.52;;
45322;SDS011;31382;50.200;8.674;2023-05-10T16:22:03;0.30;;;0.10;;
45322;SDS011;31382;50.200;8.674;2023-05-10T16:27:05;0.20;;;0.10;;
45322;SDS011;31382;50.200;8.674;2023-05-10T16:32:07;1.55;;;0.20;;
45322;SDS011;31382;50.200;8.674;2023-05-10T16:37:08;3.75;;;0.10;;
45322;SDS011;31382;50.200;8.674;2023-05-10T16:42:09;1.70;;;0.32;;
45322;SDS011;31382;50.200;8.674;2023-05-10T16:47:11;0.52;;;0.10;;
45322;SDS011;31382;50.200;8.674;2023-05-10T16:52:12;0.93;;;0.10;;
45322;SDS011;31382;50.200;8.674;2023-05-10T16:57:14;1.50;;;0.13;;
45322;SDS011;31382;50.200;8.674;2023-05-10T17:02:15;0.40;;;0.10;;
45322;SDS011;31382;50.200;8.674;2023-05-10T17:07:16;1.75;;;0.75;;
45322;SDS011;31382;50.200;8.674;2023-05-10T17:12:19;1.67;;;0.65;;
45322;SDS011;31382;50.200;8.674;2023-05-10T17:17:20;2.38;;;0.30;;
45322;SDS011;31382;50.200;8.674;2023-05-10T17:22:22;0.70;;;0.40;;
45322;SDS011;31382;50.200;8.674;2023-05-10T17:27:23;2.83;;;0.15;;
45322;SDS011;31382;50.200;8.674;2023-05-10T17:32:24;2.50;;;0.30;;
45322;SDS011;31382;50.200;8.674;2023-05-10T17:37:26;2.15;;;0.20;;
45322;SDS011;31382;50.200;8.674;2023-05-10T17:42:27;3.35;;;0.20;;
45322;SDS011;31382;50.200;8.674;2023-05-10T17:47:29;2.28;;;0.30;;
45322;SDS011;31382;50.200;8.674;2023-05-10T17:52:31;1.15;;;0.20;;
45322;SDS011;31382;50.200;8.674;2023-05-10T17:57:33;0.77;;;0.20;;
45322;SDS011;31382;50.200;8.674;2023-05-10T18:02:38;0.63;;;0.20;;
45322;SDS011;31382;50.200;8.674;2023-05-10T18:07:39;1.58;;;0.20;;
45322;SDS011;31382;50.200;8.674;2023-05-10T18:12:40;1.33;;;0.15;;
45322;SDS011;31382;50.200;8.674;2023-05-10T18:17:42;2.13;;;0.20;;
45322;SDS011;31382;50.200;8.674;2023-05-10T18:22:43;2.13;;;0.15;;
45322;SDS011;31382;50.200;8.674;2023-05-10T18:27:44;1.10;;;0.20;;
45322;SDS011;31382;50.200;8.674;2023-05-10T18:32:46;0.28;;;0.20;;
45322;SDS011;31382;50.200;8.674;2023-05-10T18:37:47;1.00;;;0.20;;
45322;SDS011;31382;50.200;8.674;2023-05-10T18:42:49;0.50;;;0.30;;
45322;SDS011;31382;50.200;8.674;2023-05-10T18:47:50;0.65;;;0.40;;
45322;SDS011;31382;50.200;8.674;2023-05-10T18:52:52;1.65;;;0.30;;
45322;SDS011;31382;50.200;8.674;2023-05-10T18:57:53;0.82;;;0.30;;
45322;SDS011;31382;50.200;8.674;2023-05-10T19:02:55;2.22;;;0.28;;
45322;SDS011;31382;50.200;8.674;2023-05-10T19:07:56;2.80;;;0.30;;
45322;SDS011;31382;50.200;8.674;2023-05-10T19:12:58;1.75;;;0.20;;
45322;SDS011;31382;50.200;8.674;2023-05-10T19:17:59;0.60;;;0.13;;
45322;SDS011;31382;50.200;8.674;2023-05-10T19:23:01;0.93;;;0.40;;
45322;SDS011;31382;50.200;8.674;2023-05-10T19:28:09;0.95;;;0.50;;
45322;SDS011;31382;50.200;8.674;2023-05-10T19:33:10;2.30;;;0.40;;
45322;SDS011;31382;50.200;8.674;2023-05-10T19:38:12;1.25;;;0.70;;
45322;SDS011;31382;50.200;8.674;2023-05-10T19:43:14;2.45;;;0.50;;
45322;SDS011;31382;50.200;8.674;2023-05-10T19:48:16;3.42;;;1.42;;
45322;SDS011;31382;50.200;8.674;2023-05-10T19:53:17;3.47;;;1.08;;
45322;SDS011;31382;50.200;8.674;2023-05-10T19:58:19;1.45;;;0.60;;
45322;SDS011;31382;50.200;8.674;2023-05-10T20:03:20;1.70;;;0.50;;
45322;SDS011;31382;50.200;8.674;2023-05-10T20:08:21;2.95;;;0.82;;
45322;SDS011;31382;50.200;8.674;2023-05-10T20:13:23;0.85;;;0.30;;
45322;SDS011;31382;50.200;8.674;2023-05-10T20:18:25;3.72;;;1.13;;
45322;SDS011;31382;50.200;8.674;2023-05-10T20:23:26;3.90;;;0.47;;
45322;SDS011;31382;50.200;8.674;2023-05-10T20:28:28;5.70;;;0.60;;
45322;SDS011;31382;50.200;8.674;2023-05-10T20:33:29;2.78;;;0.50;;
45322;SDS011;31382;50.200;8.674;2023-05-10T20:38:31;4.40;;;0.50;;
45322;SDS011;31382;50.200;8.674;2023-05-10T20:43:32;4.57;;;0.50;;
45322;SDS011;31382;50.200;8.674;2023-05-10T20:48:34;5.47;;;0.52;;
45322;SDS011;31382;50.200;8.674;2023-05-10T20:53:35;1.92;;;0.68;;
45322;SDS011;31382;50.200;8.674;2023-05-10T20:58:37;1.27;;;0.60;;
45322;SDS011;31382;50.200;8.674;2023-05-10T21:03:38;1.52;;;0.80;;
45322;SDS011;31382;50.200;8.674;2023-05-10T21:08:39;3.03;;;1.13;;
45322;SDS011;31382;50.200;8.674;2023-05-10T21:13:41;5.15;;;0.80;;
45322;SDS011;31382;50.200;8.674;2023-05-10T21:18:42;3.42;;;1.38;;
45322;SDS011;31382;50.200;8.674;2023-05-10T21:23:46;2.05;;;0.68;;
45322;SDS011;31382;50.200;8.674;2023-05-10T21:28:48;3.97;;;0.88;;
45322;SDS011;31382;50.200;8.674;2023-05-10T21:33:49;5.13;;;1.10;;
45322;SDS011;31382;50.200;8.674;2023-05-10T21:38:51;3.55;;;1.48;;
45322;SDS011;31382;50.200;8.674;2023-05-10T21:43:52;10.18;;;2.03;;
45322;SDS011;31382;50.200;8.674;2023-05-10T21:48:54;3.90;;;0.85;;
45322;SDS011;31382;50.200;8.674;2023-05-10T21:53:55;2.20;;;0.90;;
45322;SDS011;31382;50.200;8.674;2023-05-10T21:58:57;1.17;;;1.05;;
45322;SDS011;31382;50.200;8.674;2023-05-10T22:03:58;2.10;;;1.23;;
45322;SDS011;31382;50.200;8.674;2023-05-10T22:09:00;4.88;;;1.90;;
45322;SDS011;31382;50.200;8.674;2023-05-10T22:14:01;4.30;;;1.35;;
45322;SDS011;31382;50.200;8.674;2023-05-10T22:19:03;2.25;;;1.00;;
45322;SDS011;31382;50.200;8.674;2023-05-10T22:24:04;2.63;;;0.90;;
45322;SDS011;31382;50.200;8.674;2023-05-10T22:29:06;2.47;;;0.90;;
45322;SDS011;31382;50.200;8.674;2023-05-10T22:34:07;7.07;;;1.35;;
45322;SDS011;31382;50.200;8.674;2023-05-10T22:39:08;1.40;;;0.80;;
45322;SDS011;31382;50.200;8.674;2023-05-10T22:44:10;4.07;;;1.30;;
45322;SDS011;31382;50.200;8.674;2023-05-10T22:49:11;4.78;;;1.08;;
45322;SDS011;31382;50.200;8.674;2023-05-10T22:54:13;4.50;;;1.27;;
45322;SDS011;31382;50.200;8.674;2023-05-10T22:59:14;4.88;;;1.05;;
45322;SDS011;31382;50.200;8.674;2023-05-10T23:04:16;4.63;;;1.13;;
45322;SDS011;31382;50.200;8.674;2023-05-10T23:09:18;6.38;;;1.10;;
45322;SDS011;31382;50.200;8.674;2023-05-10T23:14:19;1.58;;;1.00;;
45322;SDS011;31382;50.200;8.674;2023-05-10T23:19:20;3.67;;;0.80;;
45322;SDS011;31382;50.200;8.674;2023-05-10T23:24:22;3.53;;;1.20;;
45322;SDS011;31382;50.200;8.674;2023-05-10T23:29:23;3.72;;;0.90;;
45322;SDS011;31382;50.200;8.674;2023-05-10T23:34:26;1.50;;;1.00;;
45322;SDS011;31382;50.200;8.674;2023-05-10T23:39:27;7.35;;;1.75;;
45322;SDS011;31382;50.200;8.674;2023-05-10T23:44:29;2.22;;;0.70;;
45322;SDS011;31382;50.200;8.674;2023-05-10T23:49:30;3.97;;;1.73;;
45322;SDS011;31382;50.200;8.674;2023-05-10T23:54:31;1.55;;;0.93;;
45322;SDS011;31382;50.200;8.674;2023-05-10T23:59:33;5.72;;;1.10;;
